sensor_id;sensor_type;location;lat;lon;timestamp;temperature;humidity
15625;DHT22;7912;51.376;6.126;2023-03-14T00:00:16;14.80;99.90
15625;DHT22;7912;51.376;6.126;2023-03-14T00:02:44;14.90;99.90
15625;DHT22;7912;51.376;6.126;2023-03-14T00:05:11;14.90;99.90
15625;DHT22;7912;51.376;6.126;2023-03-14T00:07:39;15.00;99.90
15625;DHT22;7912;51.376;6.126;2023-03-14T00:10:09;15.00;99.90
15625;DHT22;7912;51.376;6.126;2023-03-14T00:12:43;15.00;99.90
15625;DHT22;7912;51.376;6.126;2023-03-14T00:15:12;15.00;99.90
15625;DHT22;7912;51.376;6.126;2023-03-14T00:17:40;15.00;99.90
15625;DHT22;7912;51.376;6.126;2023-03-14T00:20:10;15.10;99.90
15625;DHT22;7912;51.376;6.126;2023-03-14T00:22:39;15.10;99.90
15625;DHT22;7912;51.376;6.126;2023-03-14T00:25:09;15.10;99.90
15625;DHT22;7912;51.376;6.126;2023-03-14T00:27:38;15.10;99.90
15625;DHT22;7912;51.376;6.126;2023-03-14T00:30:05;15.00;99.90
15625;DHT22;7912;51.376;6.126;2023-03-14T00:32:34;15.00;99.90
15625;DHT22;7912;51.376;6.126;2023-03-14T00:35:02;15.00;99.90
15625;DHT22;7912;51.376;6.126;2023-03-14T00:37:30;15.00;99.90
15625;DHT22;7912;51.376;6.126;2023-03-14T00:39:57;14.90;99.90
15625;DHT22;7912;51.376;6.126;2023-03-14T00:42:25;14.90;99.90
15625;DHT22;7912;51.376;6.126;2023-03-14T00:44:52;14.90;99.90
15625;DHT22;7912;51.376;6.126;2023-03-14T00:47:20;14.80;99.90
15625;DHT22;7912;51.376;6.126;2023-03-14T00:49:47;14.80;99.90
15625;DHT22;7912;51.376;6.126;2023-03-14T00:52:15;14.70;99.90
15625;DHT22;7912;51.376;6.126;2023-03-14T00:54:42;14.70;99.90
15625;DHT22;7912;51.376;6.126;2023-03-14T00:57:09;14.60;99.90
15625;DHT22;7912;51.376;6.126;2023-03-14T00:59:36;14.60;99.90
15625;DHT22;7912;51.376;6.126;2023-03-14T01:02:03;14.50;99.90
15625;DHT22;7912;51.376;6.126;2023-03-14T01:04:31;14.50;99.90
15625;DHT22;7912;51.376;6.126;2023-03-14T01:06:59;14.40;99.90
15625;DHT22;7912;51.376;6.126;2023-03-14T01:09:26;14.40;99.90
15625;DHT22;7912;51.376;6.126;2023-03-14T01:27:00;14.00;99.90
15625;DHT22;7912;51.376;6.126;2023-03-14T01:29:27;14.00;99.90
15625;DHT22;7912;51.376;6.126;2023-03-14T01:31:54;13.90;99.90
15625;DHT22;7912;51.376;6.126;2023-03-14T01:34:22;13.80;99.90
15625;DHT22;7912;51.376;6.126;2023-03-14T01:36:49;13.80;99.90
15625;DHT22;7912;51.376;6.126;2023-03-14T01:39:16;13.70;99.90
15625;DHT22;7912;51.376;6.126;2023-03-14T01:41:44;13.70;99.90
15625;DHT22;7912;51.376;6.126;2023-03-14T01:44:12;13.70;99.90
15625;DHT22;7912;51.376;6.126;2023-03-14T01:46:40;13.60;99.90
15625;DHT22;7912;51.376;6.126;2023-03-14T01:49:13;13.60;99.90
15625;DHT22;7912;51.376;6.126;2023-03-14T01:52:06;13.50;99.90
15625;DHT22;7912;51.376;6.126;2023-03-14T01:54:44;13.50;99.90
15625;DHT22;7912;51.376;6.126;2023-03-14T01:57:19;13.50;99.90
15625;DHT22;7912;51.376;6.126;2023-03-14T01:59:56;13.50;99.90
15625;DHT22;7912;51.376;6.126;2023-03-14T02:02:26;13.50;99.90
15625;DHT22;7912;51.376;6.126;2023-03-14T02:04:55;13.40;99.90
15625;DHT22;7912;51.376;6.126;2023-03-14T02:07:35;13.40;99.90
15625;DHT22;7912;51.376;6.126;2023-03-14T02:10:07;13.40;99.90
15625;DHT22;7912;51.376;6.126;2023-03-14T02:12:36;13.30;99.90
15625;DHT22;7912;51.376;6.126;2023-03-14T02:15:05;13.30;99.90
15625;DHT22;7912;51.376;6.126;2023-03-14T02:17:33;13.30;99.90
15625;DHT22;7912;51.376;6.126;2023-03-14T02:22:48;13.30;99.90
15625;DHT22;7912;51.376;6.126;2023-03-14T02:28:27;13.20;99.90
15625;DHT22;7912;51.376;6.126;2023-03-14T02:30:55;13.20;99.90
15625;DHT22;7912;51.376;6.126;2023-03-14T02:33:22;13.20;99.90
15625;DHT22;7912;51.376;6.126;2023-03-14T02:38:49;13.20;99.90
15625;DHT22;7912;51.376;6.126;2023-03-14T02:41:37;13.10;99.90
15625;DHT22;7912;51.376;6.126;2023-03-14T02:44:04;13.10;99.90
15625;DHT22;7912;51.376;6.126;2023-03-14T02:46:32;13.10;99.90
15625;DHT22;7912;51.376;6.126;2023-03-14T02:49:04;13.10;99.90
15625;DHT22;7912;51.376;6.126;2023-03-14T02:51:35;13.00;99.90
15625;DHT22;7912;51.376;6.126;2023-03-14T02:54:03;13.00;99.90
15625;DHT22;7912;51.376;6.126;2023-03-14T02:56:30;13.00;99.90
15625;DHT22;7912;51.376;6.126;2023-03-14T02:58:58;13.00;99.90
15625;DHT22;7912;51.376;6.126;2023-03-14T03:01:25;13.00;99.90
15625;DHT22;7912;51.376;6.126;2023-03-14T03:03:53;13.00;99.90
15625;DHT22;7912;51.376;6.126;2023-03-14T03:06:23;13.00;99.90
15625;DHT22;7912;51.376;6.126;2023-03-14T03:08:52;13.00;99.90
15625;DHT22;7912;51.376;6.126;2023-03-14T03:11:19;13.10;99.90
15625;DHT22;7912;51.376;6.126;2023-03-14T03:13:46;13.10;99.90
15625;DHT22;7912;51.376;6.126;2023-03-14T03:16:14;13.10;99.90
15625;DHT22;7912;51.376;6.126;2023-03-14T03:18:42;13.10;99.90
15625;DHT22;7912;51.376;6.126;2023-03-14T03:21:09;13.10;99.90
15625;DHT22;7912;51.376;6.126;2023-03-14T03:23:36;13.10;99.90
15625;DHT22;7912;51.376;6.126;2023-03-14T03:26:04;13.10;99.90
15625;DHT22;7912;51.376;6.126;2023-03-14T03:28:31;13.10;99.90
15625;DHT22;7912;51.376;6.126;2023-03-14T03:31:09;13.20;99.90
15625;DHT22;7912;51.376;6.126;2023-03-14T03:33:38;13.20;99.90
15625;DHT22;7912;51.376;6.126;2023-03-14T03:36:06;13.20;99.90
15625;DHT22;7912;51.376;6.126;2023-03-14T03:38:35;13.20;99.90
15625;DHT22;7912;51.376;6.126;2023-03-14T03:41:06;13.20;99.90
15625;DHT22;7912;51.376;6.126;2023-03-14T03:43:34;13.20;99.90
15625;DHT22;7912;51.376;6.126;2023-03-14T03:46:05;13.20;99.90
15625;DHT22;7912;51.376;6.126;2023-03-14T03:48:34;13.30;99.90
15625;DHT22;7912;51.376;6.126;2023-03-14T03:51:02;13.30;99.90
15625;DHT22;7912;51.376;6.126;2023-03-14T03:53:29;13.30;99.90
15625;DHT22;7912;51.376;6.126;2023-03-14T03:55:59;13.30;99.90
15625;DHT22;7912;51.376;6.126;2023-03-14T03:58:27;13.20;99.90
15625;DHT22;7912;51.376;6.126;2023-03-14T04:00:54;13.30;99.90
15625;DHT22;7912;51.376;6.126;2023-03-14T04:03:22;13.30;99.90
15625;DHT22;7912;51.376;6.126;2023-03-14T04:06:04;13.30;99.90
15625;DHT22;7912;51.376;6.126;2023-03-14T04:08:33;13.30;99.90
15625;DHT22;7912;51.376;6.126;2023-03-14T04:11:01;13.30;99.90
15625;DHT22;7912;51.376;6.126;2023-03-14T04:13:30;13.20;99.90
15625;DHT22;7912;51.376;6.126;2023-03-14T04:15:57;13.20;99.90
15625;DHT22;7912;51.376;6.126;2023-03-14T04:18:25;13.20;99.90
15625;DHT22;7912;51.376;6.126;2023-03-14T04:20:57;13.10;99.90
15625;DHT22;7912;51.376;6.126;2023-03-14T04:35:54;12.80;99.90
15625;DHT22;7912;51.376;6.126;2023-03-14T04:38:22;12.60;99.90
15625;DHT22;7912;51.376;6.126;2023-03-14T04:40:49;12.50;99.90
15625;DHT22;7912;51.376;6.126;2023-03-14T04:43:16;12.50;99.90
15625;DHT22;7912;51.376;6.126;2023-03-14T04:45:44;12.40;99.90
15625;DHT22;7912;51.376;6.126;2023-03-14T04:48:11;12.40;99.90
15625;DHT22;7912;51.376;6.126;2023-03-14T04:50:39;12.30;99.90
15625;DHT22;7912;51.376;6.126;2023-03-14T04:53:07;12.30;99.90
15625;DHT22;7912;51.376;6.126;2023-03-14T04:55:34;12.20;99.90
15625;DHT22;7912;51.376;6.126;2023-03-14T04:58:02;12.30;99.90
15625;DHT22;7912;51.376;6.126;2023-03-14T05:00:29;12.20;99.90
15625;DHT22;7912;51.376;6.126;2023-03-14T05:02:57;12.20;99.90
15625;DHT22;7912;51.376;6.126;2023-03-14T05:05:24;12.20;99.90
15625;DHT22;7912;51.376;6.126;2023-03-14T05:07:52;12.20;99.90
15625;DHT22;7912;51.376;6.126;2023-03-14T05:10:19;12.10;99.90
15625;DHT22;7912;51.376;6.126;2023-03-14T05:12:47;12.10;99.90
15625;DHT22;7912;51.376;6.126;2023-03-14T05:15:14;12.10;99.90
15625;DHT22;7912;51.376;6.126;2023-03-14T05:17:41;12.10;99.90
15625;DHT22;7912;51.376;6.126;2023-03-14T05:20:09;12.10;99.90
15625;DHT22;7912;51.376;6.126;2023-03-14T05:22:39;12.10;99.90
15625;DHT22;7912;51.376;6.126;2023-03-14T05:25:07;12.10;99.90
15625;DHT22;7912;51.376;6.126;2023-03-14T05:27:36;12.10;99.90
15625;DHT22;7912;51.376;6.126;2023-03-14T05:30:04;12.10;99.90
15625;DHT22;7912;51.376;6.126;2023-03-14T05:32:32;12.10;99.90
15625;DHT22;7912;51.376;6.126;2023-03-14T05:35:00;12.10;99.90
15625;DHT22;7912;51.376;6.126;2023-03-14T05:37:28;12.10;99.90
15625;DHT22;7912;51.376;6.126;2023-03-14T05:39:55;12.10;99.90
15625;DHT22;7912;51.376;6.126;2023-03-14T05:42:22;12.10;99.90
15625;DHT22;7912;51.376;6.126;2023-03-14T05:44:50;12.10;99.90
15625;DHT22;7912;51.376;6.126;2023-03-14T05:47:17;12.10;99.90
15625;DHT22;7912;51.376;6.126;2023-03-14T05:49:45;12.10;99.90
15625;DHT22;7912;51.376;6.126;2023-03-14T05:52:12;12.20;99.90
15625;DHT22;7912;51.376;6.126;2023-03-14T05:54:40;12.20;99.90
15625;DHT22;7912;51.376;6.126;2023-03-14T05:57:07;12.20;99.90
15625;DHT22;7912;51.376;6.126;2023-03-14T05:59:35;12.20;99.90
15625;DHT22;7912;51.376;6.126;2023-03-14T06:02:02;12.30;99.90
15625;DHT22;7912;51.376;6.126;2023-03-14T06:04:29;12.30;99.90
15625;DHT22;7912;51.376;6.126;2023-03-14T06:06:57;12.30;99.90
15625;DHT22;7912;51.376;6.126;2023-03-14T06:09:24;12.30;99.90
15625;DHT22;7912;51.376;6.126;2023-03-14T06:11:51;12.40;99.90
15625;DHT22;7912;51.376;6.126;2023-03-14T06:14:19;12.40;99.90
15625;DHT22;7912;51.376;6.126;2023-03-14T06:16:46;12.40;99.90
15625;DHT22;7912;51.376;6.126;2023-03-14T06:19:16;12.40;99.90
15625;DHT22;7912;51.376;6.126;2023-03-14T06:21:43;12.40;99.90
15625;DHT22;7912;51.376;6.126;2023-03-14T06:24:10;12.40;99.90
15625;DHT22;7912;51.376;6.126;2023-03-14T06:26:38;12.50;99.90
15625;DHT22;7912;51.376;6.126;2023-03-14T06:29:05;12.50;99.90
15625;DHT22;7912;51.376;6.126;2023-03-14T06:31:33;12.50;99.90
15625;DHT22;7912;51.376;6.126;2023-03-14T06:34:00;12.50;99.90
15625;DHT22;7912;51.376;6.126;2023-03-14T06:40:38;12.60;99.90
15625;DHT22;7912;51.376;6.126;2023-03-14T06:43:09;12.60;99.90
15625;DHT22;7912;51.376;6.126;2023-03-14T06:46:00;12.60;99.90
15625;DHT22;7912;51.376;6.126;2023-03-14T06:52:41;12.60;99.90
15625;DHT22;7912;51.376;6.126;2023-03-14T06:59:58;12.60;99.90
15625;DHT22;7912;51.376;6.126;2023-03-14T07:02:50;12.60;99.90
15625;DHT22;7912;51.376;6.126;2023-03-14T07:06:01;12.60;99.90
15625;DHT22;7912;51.376;6.126;2023-03-14T07:08:45;12.70;99.90
15625;DHT22;7912;51.376;6.126;2023-03-14T07:11:26;12.70;99.90
15625;DHT22;7912;51.376;6.126;2023-03-14T07:14:00;12.70;99.90
15625;DHT22;7912;51.376;6.126;2023-03-14T07:16:32;12.70;99.90
15625;DHT22;7912;51.376;6.126;2023-03-14T07:19:01;12.70;99.90
15625;DHT22;7912;51.376;6.126;2023-03-14T07:25:41;12.90;99.90
15625;DHT22;7912;51.376;6.126;2023-03-14T07:28:12;12.90;99.90
15625;DHT22;7912;51.376;6.126;2023-03-14T07:30:41;13.00;99.90
15625;DHT22;7912;51.376;6.126;2023-03-14T07:33:12;13.00;99.90
15625;DHT22;7912;51.376;6.126;2023-03-14T07:35:40;13.10;99.90
15625;DHT22;7912;51.376;6.126;2023-03-14T07:38:09;13.20;99.90
15625;DHT22;7912;51.376;6.126;2023-03-14T07:40:36;13.30;99.90
15625;DHT22;7912;51.376;6.126;2023-03-14T07:43:04;13.40;99.90
15625;DHT22;7912;51.376;6.126;2023-03-14T07:45:32;13.50;99.90
15625;DHT22;7912;51.376;6.126;2023-03-14T07:48:11;13.60;99.90
15625;DHT22;7912;51.376;6.126;2023-03-14T07:50:39;13.70;99.90
15625;DHT22;7912;51.376;6.126;2023-03-14T07:53:10;13.80;99.90
15625;DHT22;7912;51.376;6.126;2023-03-14T07:55:45;13.80;99.90
15625;DHT22;7912;51.376;6.126;2023-03-14T08:02:16;13.90;99.90
15625;DHT22;7912;51.376;6.126;2023-03-14T08:04:47;14.00;99.90
15625;DHT22;7912;51.376;6.126;2023-03-14T08:07:16;14.00;99.90
15625;DHT22;7912;51.376;6.126;2023-03-14T08:09:44;14.00;99.90
15625;DHT22;7912;51.376;6.126;2023-03-14T08:12:28;14.00;99.90
15625;DHT22;7912;51.376;6.126;2023-03-14T08:21:13;14.10;99.90
15625;DHT22;7912;51.376;6.126;2023-03-14T08:23:54;14.10;99.90
15625;DHT22;7912;51.376;6.126;2023-03-14T08:26:30;14.10;99.90
15625;DHT22;7912;51.376;6.126;2023-03-14T08:32:31;14.00;99.90
15625;DHT22;7912;51.376;6.126;2023-03-14T08:35:22;13.90;99.90
15625;DHT22;7912;51.376;6.126;2023-03-14T08:49:02;13.00;99.90
15625;DHT22;7912;51.376;6.126;2023-03-14T09:36:38;11.50;99.90
15625;DHT22;7912;51.376;6.126;2023-03-14T09:39:57;11.60;99.90
15625;DHT22;7912;51.376;6.126;2023-03-14T09:43:39;11.60;99.90
15625;DHT22;7912;51.376;6.126;2023-03-14T09:46:51;11.70;99.90
15625;DHT22;7912;51.376;6.126;2023-03-14T09:50:00;11.80;99.90
15625;DHT22;7912;51.376;6.126;2023-03-14T09:53:23;11.80;99.90
15625;DHT22;7912;51.376;6.126;2023-03-14T10:03:44;11.90;99.90
15625;DHT22;7912;51.376;6.126;2023-03-14T10:11:06;11.90;99.90
15625;DHT22;7912;51.376;6.126;2023-03-14T10:14:08;11.80;99.90
15625;DHT22;7912;51.376;6.126;2023-03-14T10:16:44;11.80;99.90
15625;DHT22;7912;51.376;6.126;2023-03-14T10:19:14;11.70;99.90
15625;DHT22;7912;51.376;6.126;2023-03-14T10:21:53;11.70;99.90
15625;DHT22;7912;51.376;6.126;2023-03-14T10:24:22;11.60;99.90
15625;DHT22;7912;51.376;6.126;2023-03-14T10:27:18;11.50;99.90
15625;DHT22;7912;51.376;6.126;2023-03-14T10:29:56;11.40;99.90
15625;DHT22;7912;51.376;6.126;2023-03-14T10:32:39;11.30;99.90
15625;DHT22;7912;51.376;6.126;2023-03-14T10:40:24;10.70;99.90
15625;DHT22;7912;51.376;6.126;2023-03-14T10:42:59;10.60;99.90
15625;DHT22;7912;51.376;6.126;2023-03-14T10:45:38;10.50;99.90
15625;DHT22;7912;51.376;6.126;2023-03-14T10:48:25;10.50;99.90
15625;DHT22;7912;51.376;6.126;2023-03-14T10:54:12;10.40;99.90
15625;DHT22;7912;51.376;6.126;2023-03-14T10:56:56;10.40;99.90
15625;DHT22;7912;51.376;6.126;2023-03-14T10:59:37;10.50;99.90
15625;DHT22;7912;51.376;6.126;2023-03-14T11:05:38;10.60;99.90
15625;DHT22;7912;51.376;6.126;2023-03-14T11:11:19;10.60;99.90
15625;DHT22;7912;51.376;6.126;2023-03-14T11:14:23;10.70;99.90
15625;DHT22;7912;51.376;6.126;2023-03-14T11:17:09;10.70;99.90
15625;DHT22;7912;51.376;6.126;2023-03-14T11:20:01;10.80;99.90
15625;DHT22;7912;51.376;6.126;2023-03-14T11:23:08;10.80;99.90
15625;DHT22;7912;51.376;6.126;2023-03-14T11:26:01;10.80;99.90
15625;DHT22;7912;51.376;6.126;2023-03-14T11:28:39;10.70;99.90
15625;DHT22;7912;51.376;6.126;2023-03-14T11:31:16;10.70;99.90
15625;DHT22;7912;51.376;6.126;2023-03-14T11:34:16;10.70;99.90
15625;DHT22;7912;51.376;6.126;2023-03-14T11:36:59;10.70;99.90
15625;DHT22;7912;51.376;6.126;2023-03-14T11:43:39;10.90;99.90
15625;DHT22;7912;51.376;6.126;2023-03-14T11:46:16;11.10;99.90
15625;DHT22;7912;51.376;6.126;2023-03-14T11:55:55;11.60;99.90
15625;DHT22;7912;51.376;6.126;2023-03-14T11:58:29;11.60;99.90
15625;DHT22;7912;51.376;6.126;2023-03-14T12:01:07;11.60;99.90
15625;DHT22;7912;51.376;6.126;2023-03-14T12:06:48;11.60;99.90
15625;DHT22;7912;51.376;6.126;2023-03-14T12:09:20;11.60;99.90
15625;DHT22;7912;51.376;6.126;2023-03-14T12:11:56;11.50;99.90
15625;DHT22;7912;51.376;6.126;2023-03-14T12:18:38;11.50;99.90
15625;DHT22;7912;51.376;6.126;2023-03-14T12:21:10;11.50;99.90
15625;DHT22;7912;51.376;6.126;2023-03-14T12:23:43;11.40;99.90
15625;DHT22;7912;51.376;6.126;2023-03-14T12:26:18;11.40;99.90
15625;DHT22;7912;51.376;6.126;2023-03-14T12:31:36;11.20;99.90
15625;DHT22;7912;51.376;6.126;2023-03-14T12:42:57;10.80;99.90
15625;DHT22;7912;51.376;6.126;2023-03-14T12:45:31;10.70;99.90
15625;DHT22;7912;51.376;6.126;2023-03-14T12:48:14;10.70;99.90
15625;DHT22;7912;51.376;6.126;2023-03-14T12:50:55;10.80;99.90
15625;DHT22;7912;51.376;6.126;2023-03-14T12:59:20;10.90;99.90
15625;DHT22;7912;51.376;6.126;2023-03-14T13:04:47;10.90;99.90
15625;DHT22;7912;51.376;6.126;2023-03-14T13:07:36;10.90;99.90
15625;DHT22;7912;51.376;6.126;2023-03-14T13:10:48;10.90;99.90
15625;DHT22;7912;51.376;6.126;2023-03-14T13:15:49;11.00;99.90
15625;DHT22;7912;51.376;6.126;2023-03-14T13:18:39;11.10;99.90
15625;DHT22;7912;51.376;6.126;2023-03-14T13:21:19;11.40;99.90
15625;DHT22;7912;51.376;6.126;2023-03-14T13:24:06;11.70;99.90
15625;DHT22;7912;51.376;6.126;2023-03-14T13:26:48;12.10;99.90
15625;DHT22;7912;51.376;6.126;2023-03-14T13:29:21;12.40;99.90
15625;DHT22;7912;51.376;6.126;2023-03-14T13:31:55;12.60;99.90
15625;DHT22;7912;51.376;6.126;2023-03-14T13:34:34;12.70;99.90
15625;DHT22;7912;51.376;6.126;2023-03-14T13:37:02;12.80;99.10
15625;DHT22;7912;51.376;6.126;2023-03-14T13:39:30;12.90;97.30
15625;DHT22;7912;51.376;6.126;2023-03-14T13:42:01;13.00;97.20
15625;DHT22;7912;51.376;6.126;2023-03-14T13:44:34;13.00;96.90
15625;DHT22;7912;51.376;6.126;2023-03-14T13:47:15;13.10;96.70
15625;DHT22;7912;51.376;6.126;2023-03-14T13:49:45;13.20;96.90
15625;DHT22;7912;51.376;6.126;2023-03-14T13:52:22;13.40;97.70
15625;DHT22;7912;51.376;6.126;2023-03-14T13:54:57;13.60;98.00
15625;DHT22;7912;51.376;6.126;2023-03-14T13:57:51;14.00;97.50
15625;DHT22;7912;51.376;6.126;2023-03-14T14:00:27;14.30;93.90
15625;DHT22;7912;51.376;6.126;2023-03-14T14:02:56;14.50;90.40
15625;DHT22;7912;51.376;6.126;2023-03-14T14:05:28;14.50;89.60
15625;DHT22;7912;51.376;6.126;2023-03-14T14:07:58;14.40;83.60
15625;DHT22;7912;51.376;6.126;2023-03-14T14:10:28;14.20;85.70
15625;DHT22;7912;51.376;6.126;2023-03-14T14:17:18;14.00;83.90
15625;DHT22;7912;51.376;6.126;2023-03-14T14:19:49;13.90;83.70
15625;DHT22;7912;51.376;6.126;2023-03-14T14:22:18;13.80;85.90
15625;DHT22;7912;51.376;6.126;2023-03-14T14:24:48;13.70;85.00
15625;DHT22;7912;51.376;6.126;2023-03-14T14:27:28;13.50;83.30
15625;DHT22;7912;51.376;6.126;2023-03-14T14:30:06;13.40;84.30
15625;DHT22;7912;51.376;6.126;2023-03-14T14:32:56;13.30;85.80
15625;DHT22;7912;51.376;6.126;2023-03-14T14:35:39;13.30;88.60
15625;DHT22;7912;51.376;6.126;2023-03-14T14:38:12;13.30;84.20
15625;DHT22;7912;51.376;6.126;2023-03-14T14:40:49;13.40;80.30
15625;DHT22;7912;51.376;6.126;2023-03-14T14:43:25;13.40;80.40
15625;DHT22;7912;51.376;6.126;2023-03-14T14:49:59;13.40;78.60
15625;DHT22;7912;51.376;6.126;2023-03-14T14:56:40;13.30;82.10
15625;DHT22;7912;51.376;6.126;2023-03-14T15:03:57;13.20;81.40
15625;DHT22;7912;51.376;6.126;2023-03-14T15:06:28;13.20;78.70
15625;DHT22;7912;51.376;6.126;2023-03-14T15:08:58;13.10;77.60
15625;DHT22;7912;51.376;6.126;2023-03-14T15:11:26;13.00;78.40
15625;DHT22;7912;51.376;6.126;2023-03-14T15:13:53;12.90;77.50
15625;DHT22;7912;51.376;6.126;2023-03-14T15:16:25;12.70;76.00
15625;DHT22;7912;51.376;6.126;2023-03-14T15:19:01;12.60;77.20
15625;DHT22;7912;51.376;6.126;2023-03-14T15:21:59;12.50;77.30
15625;DHT22;7912;51.376;6.126;2023-03-14T15:24:26;12.40;76.70
15625;DHT22;7912;51.376;6.126;2023-03-14T15:30:56;12.10;77.70
15625;DHT22;7912;51.376;6.126;2023-03-14T15:33:30;12.00;79.00
15625;DHT22;7912;51.376;6.126;2023-03-14T15:36:00;11.80;77.90
15625;DHT22;7912;51.376;6.126;2023-03-14T15:38:28;11.80;79.00
15625;DHT22;7912;51.376;6.126;2023-03-14T15:40:56;11.70;78.90
15625;DHT22;7912;51.376;6.126;2023-03-14T15:43:23;11.70;80.00
15625;DHT22;7912;51.376;6.126;2023-03-14T15:45:51;11.60;79.50
15625;DHT22;7912;51.376;6.126;2023-03-14T15:48:20;11.60;80.90
15625;DHT22;7912;51.376;6.126;2023-03-14T15:50:48;11.60;79.50
15625;DHT22;7912;51.376;6.126;2023-03-14T15:53:16;11.60;79.10
15625;DHT22;7912;51.376;6.126;2023-03-14T15:55:44;11.50;79.20
15625;DHT22;7912;51.376;6.126;2023-03-14T15:58:18;11.50;79.90
15625;DHT22;7912;51.376;6.126;2023-03-14T16:00:48;11.50;80.10
15625;DHT22;7912;51.376;6.126;2023-03-14T16:03:17;11.50;81.50
15625;DHT22;7912;51.376;6.126;2023-03-14T16:05:44;11.40;81.90
15625;DHT22;7912;51.376;6.126;2023-03-14T16:08:12;11.40;81.00
15625;DHT22;7912;51.376;6.126;2023-03-14T16:10:39;11.40;82.00
15625;DHT22;7912;51.376;6.126;2023-03-14T16:13:08;11.40;83.10
15625;DHT22;7912;51.376;6.126;2023-03-14T16:15:35;11.40;82.90
15625;DHT22;7912;51.376;6.126;2023-03-14T16:18:03;11.40;84.00
15625;DHT22;7912;51.376;6.126;2023-03-14T16:20:57;11.40;84.00
15625;DHT22;7912;51.376;6.126;2023-03-14T16:23:34;11.30;83.00
15625;DHT22;7912;51.376;6.126;2023-03-14T16:26:07;11.20;83.30
15625;DHT22;7912;51.376;6.126;2023-03-14T16:28:36;11.20;84.30
15625;DHT22;7912;51.376;6.126;2023-03-14T16:31:06;11.20;84.30
15625;DHT22;7912;51.376;6.126;2023-03-14T16:33:37;11.10;85.00
15625;DHT22;7912;51.376;6.126;2023-03-14T16:36:08;11.10;85.40
15625;DHT22;7912;51.376;6.126;2023-03-14T16:38:40;11.00;85.60
15625;DHT22;7912;51.376;6.126;2023-03-14T16:41:17;10.90;86.20
15625;DHT22;7912;51.376;6.126;2023-03-14T16:43:46;10.90;85.70
15625;DHT22;7912;51.376;6.126;2023-03-14T16:46:20;10.80;87.20
15625;DHT22;7912;51.376;6.126;2023-03-14T16:48:48;10.80;86.50
15625;DHT22;7912;51.376;6.126;2023-03-14T16:51:19;10.70;86.80
15625;DHT22;7912;51.376;6.126;2023-03-14T16:53:47;10.70;86.90
15625;DHT22;7912;51.376;6.126;2023-03-14T16:56:15;10.60;86.70
15625;DHT22;7912;51.376;6.126;2023-03-14T16:58:51;10.60;87.50
15625;DHT22;7912;51.376;6.126;2023-03-14T17:01:23;10.50;87.90
15625;DHT22;7912;51.376;6.126;2023-03-14T17:03:57;10.40;85.90
15625;DHT22;7912;51.376;6.126;2023-03-14T17:06:28;10.30;86.60
15625;DHT22;7912;51.376;6.126;2023-03-14T17:08:55;10.30;87.20
15625;DHT22;7912;51.376;6.126;2023-03-14T17:11:24;10.20;87.20
15625;DHT22;7912;51.376;6.126;2023-03-14T17:13:54;10.20;87.40
15625;DHT22;7912;51.376;6.126;2023-03-14T17:16:21;10.10;88.00
15625;DHT22;7912;51.376;6.126;2023-03-14T17:18:50;10.00;88.10
15625;DHT22;7912;51.376;6.126;2023-03-14T17:21:22;10.00;88.70
15625;DHT22;7912;51.376;6.126;2023-03-14T17:23:54;9.90;89.30
15625;DHT22;7912;51.376;6.126;2023-03-14T17:26:31;9.90;89.70
15625;DHT22;7912;51.376;6.126;2023-03-14T17:28:58;9.90;89.40
15625;DHT22;7912;51.376;6.126;2023-03-14T17:31:26;9.80;89.80
15625;DHT22;7912;51.376;6.126;2023-03-14T17:33:53;9.70;89.80
15625;DHT22;7912;51.376;6.126;2023-03-14T17:36:21;9.70;90.00
15625;DHT22;7912;51.376;6.126;2023-03-14T17:38:52;9.70;90.20
15625;DHT22;7912;51.376;6.126;2023-03-14T17:41:23;9.60;90.00
15625;DHT22;7912;51.376;6.126;2023-03-14T17:43:50;9.60;90.10
15625;DHT22;7912;51.376;6.126;2023-03-14T17:46:17;9.60;89.40
15625;DHT22;7912;51.376;6.126;2023-03-14T17:48:46;9.50;89.20
15625;DHT22;7912;51.376;6.126;2023-03-14T17:51:20;9.50;89.80
15625;DHT22;7912;51.376;6.126;2023-03-14T17:53:47;9.50;90.30
15625;DHT22;7912;51.376;6.126;2023-03-14T17:56:14;9.40;90.40
15625;DHT22;7912;51.376;6.126;2023-03-14T17:58:41;9.40;90.60
15625;DHT22;7912;51.376;6.126;2023-03-14T18:01:18;9.40;90.70
15625;DHT22;7912;51.376;6.126;2023-03-14T18:03:46;9.30;90.30
15625;DHT22;7912;51.376;6.126;2023-03-14T18:06:15;9.30;90.50
15625;DHT22;7912;51.376;6.126;2023-03-14T18:08:43;9.30;90.70
15625;DHT22;7912;51.376;6.126;2023-03-14T18:11:12;9.20;90.90
15625;DHT22;7912;51.376;6.126;2023-03-14T18:13:40;9.20;91.10
15625;DHT22;7912;51.376;6.126;2023-03-14T18:16:10;9.20;91.20
15625;DHT22;7912;51.376;6.126;2023-03-14T18:18:47;9.10;91.30
15625;DHT22;7912;51.376;6.126;2023-03-14T18:21:20;9.10;91.40
15625;DHT22;7912;51.376;6.126;2023-03-14T18:23:49;9.10;91.70
15625;DHT22;7912;51.376;6.126;2023-03-14T18:26:17;9.10;91.80
15625;DHT22;7912;51.376;6.126;2023-03-14T18:28:44;9.10;91.90
15625;DHT22;7912;51.376;6.126;2023-03-14T18:31:13;9.00;92.10
15625;DHT22;7912;51.376;6.126;2023-03-14T18:33:44;9.00;92.20
15625;DHT22;7912;51.376;6.126;2023-03-14T18:36:14;9.00;92.40
15625;DHT22;7912;51.376;6.126;2023-03-14T18:38:45;9.00;92.40
15625;DHT22;7912;51.376;6.126;2023-03-14T18:41:16;8.90;92.50
15625;DHT22;7912;51.376;6.126;2023-03-14T18:43:49;8.90;92.50
15625;DHT22;7912;51.376;6.126;2023-03-14T18:46:19;8.90;92.70
15625;DHT22;7912;51.376;6.126;2023-03-14T18:48:48;8.90;92.70
15625;DHT22;7912;51.376;6.126;2023-03-14T18:51:26;8.80;92.80
15625;DHT22;7912;51.376;6.126;2023-03-14T18:53:58;8.80;92.90
15625;DHT22;7912;51.376;6.126;2023-03-14T18:56:39;8.80;93.10
15625;DHT22;7912;51.376;6.126;2023-03-14T18:59:08;8.80;93.30
15625;DHT22;7912;51.376;6.126;2023-03-14T19:01:37;8.70;93.30
15625;DHT22;7912;51.376;6.126;2023-03-14T19:04:05;8.70;93.40
15625;DHT22;7912;51.376;6.126;2023-03-14T19:06:36;8.60;93.70
15625;DHT22;7912;51.376;6.126;2023-03-14T19:09:04;8.60;93.50
15625;DHT22;7912;51.376;6.126;2023-03-14T19:11:32;8.60;93.60
15625;DHT22;7912;51.376;6.126;2023-03-14T19:13:59;8.50;93.60
15625;DHT22;7912;51.376;6.126;2023-03-14T19:16:26;8.50;93.70
15625;DHT22;7912;51.376;6.126;2023-03-14T19:18:55;8.50;93.70
15625;DHT22;7912;51.376;6.126;2023-03-14T19:21:33;8.40;93.80
15625;DHT22;7912;51.376;6.126;2023-03-14T19:24:01;8.40;93.80
15625;DHT22;7912;51.376;6.126;2023-03-14T19:26:32;8.30;93.90
15625;DHT22;7912;51.376;6.126;2023-03-14T19:29:01;8.30;94.00
15625;DHT22;7912;51.376;6.126;2023-03-14T19:31:28;8.20;94.10
15625;DHT22;7912;51.376;6.126;2023-03-14T19:33:56;8.20;94.20
15625;DHT22;7912;51.376;6.126;2023-03-14T19:36:31;8.10;94.30
15625;DHT22;7912;51.376;6.126;2023-03-14T19:39:01;8.10;94.30
15625;DHT22;7912;51.376;6.126;2023-03-14T19:41:31;8.00;94.40
15625;DHT22;7912;51.376;6.126;2023-03-14T19:43:59;7.90;94.50
15625;DHT22;7912;51.376;6.126;2023-03-14T19:46:29;7.80;94.50
15625;DHT22;7912;51.376;6.126;2023-03-14T19:48:59;7.80;94.60
15625;DHT22;7912;51.376;6.126;2023-03-14T19:51:26;7.70;94.70
15625;DHT22;7912;51.376;6.126;2023-03-14T19:53:56;7.60;94.90